sensor_id;sensor_type;location;lat;lon;timestamp;pressure;altitude;pressure_sealevel;temperature;humidity
48790;BME280;41718;51.980;5.734;2023-02-10T00:04:11;103359.78;;;-0.37;100.00
48790;BME280;41718;51.980;5.734;2023-02-10T00:09:13;103356.28;;;-0.55;100.00
48790;BME280;41718;51.980;5.734;2023-02-10T00:14:16;103359.88;;;-0.62;100.00
48790;BME280;41718;51.980;5.734;2023-02-10T00:19:19;103362.22;;;-0.72;100.00
48790;BME280;41718;51.980;5.734;2023-02-10T00:24:22;103368.44;;;-0.86;100.00
48790;BME280;41718;51.980;5.734;2023-02-10T00:29:25;103366.44;;;-0.97;100.00
48790;BME280;41718;51.980;5.734;2023-02-10T00:34:30;103371.34;;;-1.07;100.00
48790;BME280;41718;51.980;5.734;2023-02-10T00:39:31;103375.25;;;-1.02;100.00
48790;BME280;41718;51.980;5.734;2023-02-10T00:44:34;103373.22;;;-0.80;100.00
48790;BME280;41718;51.980;5.734;2023-02-10T00:49:36;103367.81;;;-0.92;100.00
48790;BME280;41718;51.980;5.734;2023-02-10T00:54:38;103375.28;;;-0.93;100.00
48790;BME280;41718;51.980;5.734;2023-02-10T00:59:40;103378.56;;;-0.94;100.00
48790;BME280;41718;51.980;5.734;2023-02-10T01:04:43;103381.56;;;-0.57;100.00
48790;BME280;41718;51.980;5.734;2023-02-10T01:09:44;103376.88;;;-0.69;100.00
48790;BME280;41718;51.980;5.734;2023-02-10T01:14:46;103383.94;;;-0.58;100.00
48790;BME280;41718;51.980;5.734;2023-02-10T01:19:49;103385.72;;;-0.57;100.00
48790;BME280;41718;51.980;5.734;2023-02-10T01:24:52;103391.03;;;-0.80;100.00
48790;BME280;41718;51.980;5.734;2023-02-10T01:29:54;103377.19;;;-0.66;100.00
48790;BME280;41718;51.980;5.734;2023-02-10T01:34:55;103368.94;;;-0.72;100.00
48790;BME280;41718;51.980;5.734;2023-02-10T01:39:58;103364.63;;;-0.73;100.00
48790;BME280;41718;51.980;5.734;2023-02-10T01:45:22;103363.41;;;-0.77;100.00
48790;BME280;41718;51.980;5.734;2023-02-10T01:50:29;103356.06;;;-0.74;100.00
48790;BME280;41718;51.980;5.734;2023-02-10T01:55:33;103351.63;;;-0.68;100.00
48790;BME280;41718;51.980;5.734;2023-02-10T02:00:37;103358.66;;;-0.65;100.00
48790;BME280;41718;51.980;5.734;2023-02-10T02:05:41;103355.97;;;-0.67;100.00
48790;BME280;41718;51.980;5.734;2023-02-10T02:26:54;103350.56;;;-0.70;100.00
48790;BME280;41718;51.980;5.734;2023-02-10T02:37:17;103340.09;;;-0.64;100.00
48790;BME280;41718;51.980;5.734;2023-02-10T02:42:28;103339.69;;;-0.60;100.00
48790;BME280;41718;51.980;5.734;2023-02-10T02:47:43;103331.03;;;-0.62;100.00
48790;BME280;41718;51.980;5.734;2023-02-10T02:53:09;103330.56;;;-0.67;100.00
48790;BME280;41718;51.980;5.734;2023-02-10T02:58:33;103328.47;;;-0.62;100.00
48790;BME280;41718;51.980;5.734;2023-02-10T03:03:36;103331.59;;;-0.65;100.00
48790;BME280;41718;51.980;5.734;2023-02-10T03:08:40;103338.63;;;-0.62;100.00
48790;BME280;41718;51.980;5.734;2023-02-10T03:13:42;103337.00;;;-0.62;100.00
48790;BME280;41718;51.980;5.734;2023-02-10T03:18:43;103329.81;;;-0.66;100.00
48790;BME280;41718;51.980;5.734;2023-02-10T03:23:45;103330.13;;;-0.54;100.00
48790;BME280;41718;51.980;5.734;2023-02-10T03:28:47;103320.09;;;-0.61;100.00
48790;BME280;41718;51.980;5.734;2023-02-10T03:33:49;103316.47;;;-0.72;100.00
48790;BME280;41718;51.980;5.734;2023-02-10T03:38:54;103317.94;;;-0.83;100.00
48790;BME280;41718;51.980;5.734;2023-02-10T03:43:56;103321.81;;;-0.86;100.00
48790;BME280;41718;51.980;5.734;2023-02-10T03:48:57;103321.78;;;-0.95;100.00
48790;BME280;41718;51.980;5.734;2023-02-10T03:54:00;103311.59;;;-1.03;100.00
48790;BME280;41718;51.980;5.734;2023-02-10T03:59:03;103309.94;;;-1.03;100.00
48790;BME280;41718;51.980;5.734;2023-02-10T04:04:05;103308.28;;;-1.11;100.00
48790;BME280;41718;51.980;5.734;2023-02-10T04:09:13;103307.38;;;-1.12;100.00
48790;BME280;41718;51.980;5.734;2023-02-10T04:14:17;103316.44;;;-1.22;100.00
48790;BME280;41718;51.980;5.734;2023-02-10T04:19:18;103328.63;;;-1.36;100.00
48790;BME280;41718;51.980;5.734;2023-02-10T04:24:20;103321.28;;;-1.41;100.00
48790;BME280;41718;51.980;5.734;2023-02-10T04:29:23;103312.03;;;-1.41;100.00
48790;BME280;41718;51.980;5.734;2023-02-10T04:34:27;103313.94;;;-1.47;100.00
48790;BME280;41718;51.980;5.734;2023-02-10T04:39:30;103322.25;;;-1.48;100.00
48790;BME280;41718;51.980;5.734;2023-02-10T04:44:32;103319.31;;;-1.44;100.00
48790;BME280;41718;51.980;5.734;2023-02-10T04:49:33;103322.72;;;-1.52;100.00
48790;BME280;41718;51.980;5.734;2023-02-10T04:54:35;103335.22;;;-1.53;100.00
48790;BME280;41718;51.980;5.734;2023-02-10T04:59:36;103336.44;;;-1.50;100.00
48790;BME280;41718;51.980;5.734;2023-02-10T05:04:38;103334.94;;;-1.48;100.00
48790;BME280;41718;51.980;5.734;2023-02-10T05:09:40;103330.75;;;-1.56;100.00
48790;BME280;41718;51.980;5.734;2023-02-10T05:14:41;103310.44;;;-1.56;100.00
48790;BME280;41718;51.980;5.734;2023-02-10T05:19:43;103314.03;;;-1.54;100.00
48790;BME280;41718;51.980;5.734;2023-02-10T05:24:47;103313.31;;;-1.53;100.00
48790;BME280;41718;51.980;5.734;2023-02-10T05:29:50;103311.06;;;-1.50;100.00
48790;BME280;41718;51.980;5.734;2023-02-10T05:34:51;103314.84;;;-1.46;100.00
48790;BME280;41718;51.980;5.734;2023-02-10T05:39:54;103318.56;;;-1.43;100.00
48790;BME280;41718;51.980;5.734;2023-02-10T05:44:58;103320.84;;;-1.37;100.00
48790;BME280;41718;51.980;5.734;2023-02-10T05:50:00;103315.66;;;-1.30;100.00
48790;BME280;41718;51.980;5.734;2023-02-10T05:55:02;103329.28;;;-1.21;100.00
48790;BME280;41718;51.980;5.734;2023-02-10T06:00:06;103320.56;;;-1.07;100.00
48790;BME280;41718;51.980;5.734;2023-02-10T06:05:08;103308.56;;;-1.08;100.00
48790;BME280;41718;51.980;5.734;2023-02-10T06:10:10;103303.59;;;-0.91;100.00
48790;BME280;41718;51.980;5.734;2023-02-10T06:15:13;103308.66;;;-0.91;100.00
48790;BME280;41718;51.980;5.734;2023-02-10T06:20:15;103302.50;;;-0.93;100.00
48790;BME280;41718;51.980;5.734;2023-02-10T06:25:16;103304.78;;;-0.87;100.00
48790;BME280;41718;51.980;5.734;2023-02-10T06:30:18;103299.41;;;-0.90;100.00
48790;BME280;41718;51.980;5.734;2023-02-10T06:35:20;103314.78;;;-0.80;100.00
48790;BME280;41718;51.980;5.734;2023-02-10T06:40:22;103318.56;;;-0.76;100.00
48790;BME280;41718;51.980;5.734;2023-02-10T06:45:26;103315.88;;;-0.69;100.00
48790;BME280;41718;51.980;5.734;2023-02-10T06:50:33;103315.59;;;-0.64;100.00
48790;BME280;41718;51.980;5.734;2023-02-10T06:55:34;103325.31;;;-0.60;100.00
48790;BME280;41718;51.980;5.734;2023-02-10T07:00:37;103322.34;;;-0.56;100.00
48790;BME280;41718;51.980;5.734;2023-02-10T07:05:38;103325.03;;;-0.54;100.00
48790;BME280;41718;51.980;5.734;2023-02-10T07:10:43;103333.56;;;-0.54;100.00
48790;BME280;41718;51.980;5.734;2023-02-10T07:15:48;103339.97;;;-0.57;100.00
48790;BME280;41718;51.980;5.734;2023-02-10T07:20:50;103323.69;;;-0.59;100.00
48790;BME280;41718;51.980;5.734;2023-02-10T07:25:58;103321.16;;;-0.50;100.00
48790;BME280;41718;51.980;5.734;2023-02-10T07:31:07;103318.63;;;-0.42;100.00
48790;BME280;41718;51.980;5.734;2023-02-10T07:36:11;103324.16;;;-0.29;100.00
48790;BME280;41718;51.980;5.734;2023-02-10T07:41:13;103331.44;;;-0.58;100.00
48790;BME280;41718;51.980;5.734;2023-02-10T07:46:17;103334.44;;;-0.62;100.00
48790;BME280;41718;51.980;5.734;2023-02-10T07:51:21;103345.66;;;-0.60;100.00
48790;BME280;41718;51.980;5.734;2023-02-10T07:56:24;103355.97;;;-0.58;100.00
48790;BME280;41718;51.980;5.734;2023-02-10T08:01:27;103359.72;;;-0.55;100.00
48790;BME280;41718;51.980;5.734;2023-02-10T08:06:36;103363.31;;;-0.61;100.00
48790;BME280;41718;51.980;5.734;2023-02-10T08:11:38;103377.47;;;-0.63;100.00
48790;BME280;41718;51.980;5.734;2023-02-10T08:16:44;103389.28;;;-0.64;100.00
48790;BME280;41718;51.980;5.734;2023-02-10T08:21:46;103395.44;;;-0.62;100.00
48790;BME280;41718;51.980;5.734;2023-02-10T08:26:47;103382.28;;;-0.66;100.00
48790;BME280;41718;51.980;5.734;2023-02-10T08:31:50;103380.75;;;-0.73;100.00
48790;BME280;41718;51.980;5.734;2023-02-10T08:36:52;103369.00;;;-0.55;100.00
48790;BME280;41718;51.980;5.734;2023-02-10T08:41:53;103372.44;;;-0.46;100.00
48790;BME280;41718;51.980;5.734;2023-02-10T08:46:56;103371.72;;;-0.45;100.00
48790;BME280;41718;51.980;5.734;2023-02-10T08:51:57;103366.94;;;-0.42;100.00
48790;BME280;41718;51.980;5.734;2023-02-10T08:56:59;103376.53;;;-0.39;100.00
48790;BME280;41718;51.980;5.734;2023-02-10T09:02:01;103382.19;;;-0.42;100.00
48790;BME280;41718;51.980;5.734;2023-02-10T09:07:03;103374.84;;;-0.47;100.00
48790;BME280;41718;51.980;5.734;2023-02-10T09:12:05;103377.59;;;-0.20;100.00
48790;BME280;41718;51.980;5.734;2023-02-10T09:17:07;103392.72;;;-0.21;100.00
48790;BME280;41718;51.980;5.734;2023-02-10T09:22:09;103401.84;;;-0.15;100.00
48790;BME280;41718;51.980;5.734;2023-02-10T09:27:11;103397.81;;;-0.04;100.00
48790;BME280;41718;51.980;5.734;2023-02-10T09:32:12;103396.47;;;-0.09;100.00
48790;BME280;41718;51.980;5.734;2023-02-10T09:37:14;103393.47;;;0.04;100.00
48790;BME280;41718;51.980;5.734;2023-02-10T09:47:47;103385.84;;;0.21;100.00
48790;BME280;41718;51.980;5.734;2023-02-10T09:58:31;103400.81;;;0.44;100.00
48790;BME280;41718;51.980;5.734;2023-02-10T10:03:45;103403.94;;;0.76;100.00
48790;BME280;41718;51.980;5.734;2023-02-10T10:09:04;103409.31;;;0.62;100.00
48790;BME280;41718;51.980;5.734;2023-02-10T10:19:36;103398.16;;;0.96;100.00
48790;BME280;41718;51.980;5.734;2023-02-10T10:30:14;103397.97;;;1.20;100.00
48790;BME280;41718;51.980;5.734;2023-02-10T10:35:22;103388.03;;;1.23;100.00
48790;BME280;41718;51.980;5.734;2023-02-10T10:40:30;103386.94;;;1.30;100.00
48790;BME280;41718;51.980;5.734;2023-02-10T10:45:40;103377.97;;;1.52;100.00
48790;BME280;41718;51.980;5.734;2023-02-10T10:51:03;103369.66;;;1.64;100.00
48790;BME280;41718;51.980;5.734;2023-02-10T10:56:33;103378.94;;;1.91;100.00
48790;BME280;41718;51.980;5.734;2023-02-10T11:01:38;103385.09;;;2.11;100.00
48790;BME280;41718;51.980;5.734;2023-02-10T11:06:43;103385.28;;;2.42;100.00
48790;BME280;41718;51.980;5.734;2023-02-10T11:11:50;103375.75;;;2.89;100.00
48790;BME280;41718;51.980;5.734;2023-02-10T11:16:54;103378.06;;;4.07;100.00
48790;BME280;41718;51.980;5.734;2023-02-10T11:22:00;103391.31;;;4.75;100.00
48790;BME280;41718;51.980;5.734;2023-02-10T11:27:15;103400.63;;;4.95;100.00
48790;BME280;41718;51.980;5.734;2023-02-10T11:32:27;103418.28;;;5.46;100.00
48790;BME280;41718;51.980;5.734;2023-02-10T11:37:33;103425.22;;;6.15;100.00
48790;BME280;41718;51.980;5.734;2023-02-10T11:42:38;103423.63;;;7.10;100.00
48790;BME280;41718;51.980;5.734;2023-02-10T11:47:40;103430.56;;;5.84;100.00
48790;BME280;41718;51.980;5.734;2023-02-10T11:52:42;103418.97;;;6.23;100.00
48790;BME280;41718;51.980;5.734;2023-02-10T12:03:59;103421.75;;;6.84;100.00
48790;BME280;41718;51.980;5.734;2023-02-10T12:19:59;103469.84;;;6.50;100.00
48790;BME280;41718;51.980;5.734;2023-02-10T12:30:45;103476.13;;;6.66;100.00
48790;BME280;41718;51.980;5.734;2023-02-10T12:41:32;103474.91;;;6.60;100.00
48790;BME280;41718;51.980;5.734;2023-02-10T12:52:05;103463.03;;;6.86;100.00
48790;BME280;41718;51.980;5.734;2023-02-10T12:57:33;103460.59;;;6.64;100.00
48790;BME280;41718;51.980;5.734;2023-02-10T13:02:49;103441.81;;;6.77;100.00
48790;BME280;41718;51.980;5.734;2023-02-10T13:07:54;103427.47;;;6.69;100.00
48790;BME280;41718;51.980;5.734;2023-02-10T13:13:06;103426.00;;;6.84;100.00
48790;BME280;41718;51.980;5.734;2023-02-10T13:18:24;103412.16;;;6.82;100.00
48790;BME280;41718;51.980;5.734;2023-02-10T13:23:44;103416.97;;;6.77;100.00
48790;BME280;41718;51.980;5.734;2023-02-10T13:34:25;103399.88;;;6.54;100.00
48790;BME280;41718;51.980;5.734;2023-02-10T13:39:27;103389.69;;;6.44;100.00
48790;BME280;41718;51.980;5.734;2023-02-10T13:44:33;103376.25;;;6.83;100.00
48790;BME280;41718;51.980;5.734;2023-02-10T13:49:55;103358.59;;;7.13;100.00
48790;BME280;41718;51.980;5.734;2023-02-10T14:00:12;103340.84;;;6.56;100.00
48790;BME280;41718;51.980;5.734;2023-02-10T14:21:16;103354.06;;;6.37;100.00
48790;BME280;41718;51.980;5.734;2023-02-10T14:26:20;103348.91;;;6.37;100.00
48790;BME280;41718;51.980;5.734;2023-02-10T14:31:28;103356.84;;;6.40;100.00
48790;BME280;41718;51.980;5.734;2023-02-10T14:36:31;103350.91;;;6.29;100.00
48790;BME280;41718;51.980;5.734;2023-02-10T14:41:35;103361.31;;;6.19;100.00
48790;BME280;41718;51.980;5.734;2023-02-10T14:46:39;103355.16;;;6.17;100.00
48790;BME280;41718;51.980;5.734;2023-02-10T14:51:44;103345.00;;;6.19;100.00
48790;BME280;41718;51.980;5.734;2023-02-10T14:56:59;103320.22;;;6.19;100.00
48790;BME280;41718;51.980;5.734;2023-02-10T15:02:10;103326.53;;;6.01;100.00
48790;BME280;41718;51.980;5.734;2023-02-10T15:07:20;103327.22;;;5.98;100.00
48790;BME280;41718;51.980;5.734;2023-02-10T15:12:24;103324.66;;;5.98;100.00
48790;BME280;41718;51.980;5.734;2023-02-10T15:17:31;103322.44;;;5.91;100.00
48790;BME280;41718;51.980;5.734;2023-02-10T15:22:41;103341.13;;;5.78;100.00
48790;BME280;41718;51.980;5.734;2023-02-10T15:27:43;103342.13;;;5.69;100.00
48790;BME280;41718;51.980;5.734;2023-02-10T15:32:49;103348.91;;;5.56;100.00
48790;BME280;41718;51.980;5.734;2023-02-10T15:37:54;103349.88;;;5.47;100.00
48790;BME280;41718;51.980;5.734;2023-02-10T15:43:05;103352.50;;;5.37;100.00
48790;BME280;41718;51.980;5.734;2023-02-10T15:48:07;103354.53;;;5.41;100.00
48790;BME280;41718;51.980;5.734;2023-02-10T15:53:11;103348.06;;;5.34;100.00
48790;BME280;41718;51.980;5.734;2023-02-10T15:58:14;103350.19;;;5.40;100.00
48790;BME280;41718;51.980;5.734;2023-02-10T16:03:17;103349.84;;;5.35;100.00
48790;BME280;41718;51.980;5.734;2023-02-10T16:08:21;103350.38;;;5.31;100.00
48790;BME280;41718;51.980;5.734;2023-02-10T16:13:23;103359.28;;;5.24;100.00
48790;BME280;41718;51.980;5.734;2023-02-10T16:18:26;103353.25;;;5.24;100.00
48790;BME280;41718;51.980;5.734;2023-02-10T16:23:29;103353.19;;;5.12;100.00
48790;BME280;41718;51.980;5.734;2023-02-10T16:28:32;103347.97;;;5.11;100.00
48790;BME280;41718;51.980;5.734;2023-02-10T16:33:34;103340.13;;;5.09;100.00
48790;BME280;41718;51.980;5.734;2023-02-10T16:38:36;103345.56;;;5.02;100.00
48790;BME280;41718;51.980;5.734;2023-02-10T16:43:40;103349.00;;;5.02;100.00
48790;BME280;41718;51.980;5.734;2023-02-10T16:48:46;103353.34;;;5.03;100.00
48790;BME280;41718;51.980;5.734;2023-02-10T16:53:56;103362.25;;;4.97;100.00
48790;BME280;41718;51.980;5.734;2023-02-10T16:59:20;103345.97;;;4.96;100.00
48790;BME280;41718;51.980;5.734;2023-02-10T17:04:28;103325.44;;;4.96;100.00
48790;BME280;41718;51.980;5.734;2023-02-10T17:09:43;103336.38;;;4.94;100.00
48790;BME280;41718;51.980;5.734;2023-02-10T17:14:49;103307.81;;;4.89;100.00
48790;BME280;41718;51.980;5.734;2023-02-10T17:19:53;103334.88;;;4.86;100.00
48790;BME280;41718;51.980;5.734;2023-02-10T17:24:57;103311.78;;;4.86;100.00
48790;BME280;41718;51.980;5.734;2023-02-10T17:30:04;103302.97;;;4.82;100.00
48790;BME280;41718;51.980;5.734;2023-02-10T17:35:12;103317.59;;;4.83;100.00
48790;BME280;41718;51.980;5.734;2023-02-10T17:40:17;103318.34;;;4.82;100.00
48790;BME280;41718;51.980;5.734;2023-02-10T17:45:25;103310.38;;;4.89;100.00
48790;BME280;41718;51.980;5.734;2023-02-10T17:50:27;103302.53;;;4.88;100.00
48790;BME280;41718;51.980;5.734;2023-02-10T17:55:29;103292.41;;;4.89;100.00
48790;BME280;41718;51.980;5.734;2023-02-10T18:00:31;103321.16;;;4.85;100.00
48790;BME280;41718;51.980;5.734;2023-02-10T18:05:34;103302.06;;;4.82;100.00
48790;BME280;41718;51.980;5.734;2023-02-10T18:10:41;103301.84;;;4.78;100.00
48790;BME280;41718;51.980;5.734;2023-02-10T18:15:44;103308.75;;;4.79;100.00
48790;BME280;41718;51.980;5.734;2023-02-10T18:20:46;103302.72;;;4.79;100.00
48790;BME280;41718;51.980;5.734;2023-02-10T18:25:51;103305.53;;;4.82;100.00
48790;BME280;41718;51.980;5.734;2023-02-10T18:30:58;103288.34;;;4.81;100.00
48790;BME280;41718;51.980;5.734;2023-02-10T18:36:00;103285.44;;;4.76;100.00
48790;BME280;41718;51.980;5.734;2023-02-10T18:41:06;103275.31;;;4.78;100.00
48790;BME280;41718;51.980;5.734;2023-02-10T18:46:09;103281.06;;;4.75;100.00
48790;BME280;41718;51.980;5.734;2023-02-10T18:51:13;103281.84;;;4.74;100.00
48790;BME280;41718;51.980;5.734;2023-02-10T18:56:28;103266.06;;;4.80;100.00
48790;BME280;41718;51.980;5.734;2023-02-10T19:01:29;103271.59;;;4.74;100.00
48790;BME280;41718;51.980;5.734;2023-02-10T19:06:42;103293.78;;;4.74;100.00
48790;BME280;41718;51.980;5.734;2023-02-10T19:11:44;103312.72;;;4.76;100.00
48790;BME280;41718;51.980;5.734;2023-02-10T19:17:02;103317.13;;;4.77;100.00
48790;BME280;41718;51.980;5.734;2023-02-10T19:22:04;103325.13;;;4.82;100.00
48790;BME280;41718;51.980;5.734;2023-02-10T19:27:10;103325.13;;;4.82;100.00
48790;BME280;41718;51.980;5.734;2023-02-10T19:32:14;103326.97;;;4.83;100.00
48790;BME280;41718;51.980;5.734;2023-02-10T19:37:26;103312.56;;;4.85;100.00
48790;BME280;41718;51.980;5.734;2023-02-10T19:42:28;103315.31;;;4.76;100.00
48790;BME280;41718;51.980;5.734;2023-02-10T19:47:33;103310.06;;;4.74;100.00
48790;BME280;41718;51.980;5.734;2023-02-10T19:52:35;103308.16;;;4.72;100.00
48790;BME280;41718;51.980;5.734;2023-02-10T19:57:40;103309.16;;;4.74;100.00
48790;BME280;41718;51.980;5.734;2023-02-10T20:02:43;103297.03;;;4.71;100.00
48790;BME280;41718;51.980;5.734;2023-02-10T20:07:45;103294.56;;;4.73;100.00
48790;BME280;41718;51.980;5.734;2023-02-10T20:12:50;103301.59;;;4.75;100.00
48790;BME280;41718;51.980;5.734;2023-02-10T20:17:53;103301.47;;;4.74;100.00
48790;BME280;41718;51.980;5.734;2023-02-10T20:22:54;103287.34;;;4.79;100.00
48790;BME280;41718;51.980;5.734;2023-02-10T20:27:56;103292.69;;;4.82;100.00
48790;BME280;41718;51.980;5.734;2023-02-10T20:32:58;103289.50;;;4.85;100.00
48790;BME280;41718;51.980;5.734;2023-02-10T20:38:00;103278.34;;;4.84;100.00
48790;BME280;41718;51.980;5.734;2023-02-10T20:43:02;103262.19;;;4.85;100.00
48790;BME280;41718;51.980;5.734;2023-02-10T20:48:05;103266.53;;;4.86;100.00
48790;BME280;41718;51.980;5.734;2023-02-10T20:53:06;103276.00;;;4.87;100.00
48790;BME280;41718;51.980;5.734;2023-02-10T20:58:09;103285.50;;;4.88;100.00
48790;BME280;41718;51.980;5.734;2023-02-10T21:03:14;103283.94;;;4.90;100.00
48790;BME280;41718;51.980;5.734;2023-02-10T21:08:16;103282.03;;;4.88;100.00
48790;BME280;41718;51.980;5.734;2023-02-10T21:13:24;103288.34;;;4.81;100.00
48790;BME280;41718;51.980;5.734;2023-02-10T21:18:29;103289.59;;;4.86;100.00
48790;BME280;41718;51.980;5.734;2023-02-10T21:23:36;103306.25;;;4.91;100.00
48790;BME280;41718;51.980;5.734;2023-02-10T21:28:40;103299.44;;;4.92;100.00
48790;BME280;41718;51.980;5.734;2023-02-10T21:33:44;103297.13;;;4.95;100.00
48790;BME280;41718;51.980;5.734;2023-02-10T21:38:47;103295.22;;;4.92;100.00
48790;BME280;41718;51.980;5.734;2023-02-10T21:43:49;103297.78;;;4.92;100.00
48790;BME280;41718;51.980;5.734;2023-02-10T21:48:51;103290.84;;;4.91;100.00
48790;BME280;41718;51.980;5.734;2023-02-10T21:53:55;103292.78;;;4.94;100.00
48790;BME280;41718;51.980;5.734;2023-02-10T21:58:57;103287.09;;;4.98;100.00
48790;BME280;41718;51.980;5.734;2023-02-10T22:04:04;103283.22;;;5.03;100.00
48790;BME280;41718;51.980;5.734;2023-02-10T22:09:08;103282.56;;;5.05;100.00
48790;BME280;41718;51.980;5.734;2023-02-10T22:14:12;103281.56;;;5.15;100.00
48790;BME280;41718;51.980;5.734;2023-02-10T22:19:14;103293.09;;;5.20;100.00
48790;BME280;41718;51.980;5.734;2023-02-10T22:24:23;103301.25;;;5.26;100.00
48790;BME280;41718;51.980;5.734;2023-02-10T22:29:25;103304.50;;;5.24;100.00
48790;BME280;41718;51.980;5.734;2023-02-10T22:34:28;103304.59;;;5.25;100.00
48790;BME280;41718;51.980;5.734;2023-02-10T22:39:29;103297.16;;;5.28;100.00
48790;BME280;41718;51.980;5.734;2023-02-10T22:44:32;103295.34;;;5.27;100.00
48790;BME280;41718;51.980;5.734;2023-02-10T22:49:33;103295.69;;;5.32;100.00
48790;BME280;41718;51.980;5.734;2023-02-10T22:54:35;103299.81;;;5.30;100.00
48790;BME280;41718;51.980;5.734;2023-02-10T22:59:37;103290.44;;;5.30;100.00
48790;BME280;41718;51.980;5.734;2023-02-10T23:04:38;103294.25;;;5.36;100.00
48790;BME280;41718;51.980;5.734;2023-02-10T23:09:40;103273.06;;;5.38;100.00
48790;BME280;41718;51.980;5.734;2023-02-10T23:14:41;103266.50;;;5.42;100.00
48790;BME280;41718;51.980;5.734;2023-02-10T23:19:42;103274.63;;;5.36;100.00
48790;BME280;41718;51.980;5.734;2023-02-10T23:24:44;103273.84;;;5.37;100.00
48790;BME280;41718;51.980;5.734;2023-02-10T23:29:47;103263.81;;;5.40;100.00
48790;BME280;41718;51.980;5.734;2023-02-10T23:34:49;103260.22;;;5.38;100.00
48790;BME280;41718;51.980;5.734;2023-02-10T23:39:52;103270.28;;;5.35;100.00
48790;BME280;41718;51.980;5.734;2023-02-10T23:44:53;103260.13;;;5.37;100.00
48790;BME280;41718;51.980;5.734;2023-02-10T23:49:55;103260.56;;;5.43;100.00
48790;BME280;41718;51.980;5.734;2023-02-10T23:54:56;103234.78;;;5.41;100.00
48790;BME280;41718;51.980;5.734;2023-02-10T23:59:58;103225.97;;;5.38;100.00
